Time;durP1;ratioP1;P1;durP2;ratioP2;P2;SDS_P1;SDS_P2;PMS_P1;PMS_P2;Temp;Humidity;BMP_temperature;BMP_pressure;BME280_temperature;BME280_humidity;BME280_pressure;Samples;Min_cycle;Max_cycle;Signal;HPM_P1;HPM_P2
2022/11/25 00:01:38;;;;;;;427.77;87.10;;;;;;;;;;4989088;28;20674;-53
2022/11/25 00:04:04;;;;;;;342.87;66.87;;;;;;;;;;4985443;28;20300;-54
2022/11/25 00:06:31;;;;;;;205.43;43.37;;;;;;;;;;4993272;28;20196;-53
2022/11/25 00:08:59;;;;;;;469.33;104.90;;;;;;;;;;4991078;28;20191;-54
2022/11/25 00:11:25;;;;;;;332.47;67.77;;;;;;;;;;5006522;28;20219;-53
2022/11/25 00:13:51;;;;;;;363.53;78.30;;;;;;;;;;4994983;28;20390;-53
2022/11/25 00:16:18;;;;;;;256.90;51.60;;;;;;;;;;4993478;28;20268;-53
2022/11/25 00:18:45;;;;;;;153.77;30.50;;;;;;;;;;4999843;28;20507;-54
2022/11/25 00:21:12;;;;;;;215.97;45.30;;;;;;;;;;5007674;28;20449;-54
2022/11/25 00:23:38;;;;;;;333.93;68.03;;;;;;;;;;5017587;28;20235;-54
2022/11/25 00:26:14;;;;;;;453.50;87.30;;;;;;;;;;5000020;28;20201;-54
2022/11/25 00:28:41;;;;;;;202.63;41.37;;;;;;;;;;4995884;28;20827;-54
2022/11/25 00:31:08;;;;;;;429.37;81.53;;;;;;;;;;5004137;28;20224;-54
2022/11/25 00:33:34;;;;;;;158.80;32.40;;;;;;;;;;4996794;28;20731;-54
2022/11/25 00:36:01;;;;;;;400.83;89.90;;;;;;;;;;4993005;28;20271;-53
2022/11/25 00:38:27;;;;;;;347.77;72.80;;;;;;;;;;4989277;28;20204;-54
2022/11/25 00:44:34;;;;;;;368.53;77.63;;;;;;;;;;4989523;28;20232;-53
2022/11/25 00:46:24;;;;;;;416.00;80.63;;;;;;;;;;4994536;28;20235;-54
2022/11/25 00:48:50;;;;;;;163.80;33.20;;;;;;;;;;4991549;28;20862;-53
2022/11/25 00:51:17;;;;;;;487.23;96.53;;;;;;;;;;4988335;28;20575;-53
2022/11/25 00:53:43;;;;;;;284.80;57.73;;;;;;;;;;5004987;28;20232;-53
2022/11/25 00:56:12;;;;;;;179.30;36.47;;;;;;;;;;5002224;28;20708;-53
2022/11/25 00:58:38;;;;;;;193.77;38.13;;;;;;;;;;4996831;28;20212;-53
2022/11/25 01:01:04;;;;;;;252.27;50.27;;;;;;;;;;4987516;28;20216;-53
2022/11/25 01:03:30;;;;;;;369.40;74.67;;;;;;;;;;4992669;28;20209;-54
2022/11/25 01:06:00;;;;;;;210.13;43.40;;;;;;;;;;4991633;28;20189;-54
2022/11/25 01:08:26;;;;;;;424.67;83.47;;;;;;;;;;4993107;28;20692;-54
2022/11/25 01:10:59;;;;;;;231.07;49.20;;;;;;;;;;4980736;28;20236;-54
2022/11/25 01:13:25;;;;;;;384.53;78.27;;;;;;;;;;4990998;28;20657;-53
2022/11/25 01:15:51;;;;;;;250.40;53.50;;;;;;;;;;4992235;28;20275;-54
2022/11/25 01:18:17;;;;;;;300.87;61.30;;;;;;;;;;5004591;28;20192;-54
2022/11/25 01:20:43;;;;;;;317.23;66.63;;;;;;;;;;5002739;28;20232;-54
2022/11/25 01:23:09;;;;;;;170.17;34.73;;;;;;;;;;5000173;28;20228;-53
2022/11/25 01:25:38;;;;;;;430.37;86.83;;;;;;;;;;5006853;28;20220;-54
2022/11/25 01:28:04;;;;;;;189.27;36.53;;;;;;;;;;5012338;28;20219;-53
2022/11/25 01:30:30;;;;;;;417.43;81.63;;;;;;;;;;5007166;28;20274;-53
2022/11/25 01:32:56;;;;;;;333.90;67.07;;;;;;;;;;4991733;28;20555;-54
2022/11/25 01:35:22;;;;;;;445.63;99.73;;;;;;;;;;4993145;28;20232;-54
2022/11/25 01:37:48;;;;;;;223.07;45.07;;;;;;;;;;5000655;28;20729;-54
2022/11/25 01:40:14;;;;;;;298.47;63.17;;;;;;;;;;4992374;28;20243;-54
2022/11/25 01:42:45;;;;;;;360.17;72.63;;;;;;;;;;4998914;28;20220;-53
2022/11/25 01:45:23;;;;;;;311.67;72.27;;;;;;;;;;4993854;28;20196;-53
2022/11/25 01:47:49;;;;;;;409.67;87.70;;;;;;;;;;4992547;28;20239;-53
2022/11/25 01:50:17;;;;;;;234.73;46.57;;;;;;;;;;5011774;28;20208;-53
2022/11/25 01:52:44;;;;;;;285.70;58.93;;;;;;;;;;4999720;28;20593;-54
2022/11/25 01:55:14;;;;;;;247.13;55.53;;;;;;;;;;4992507;28;20220;-54
2022/11/25 01:57:42;;;;;;;311.37;67.53;;;;;;;;;;4991893;28;20208;-54
2022/11/25 02:00:08;;;;;;;360.43;76.33;;;;;;;;;;4990601;28;20377;-53
2022/11/25 02:02:34;;;;;;;401.50;81.70;;;;;;;;;;4988503;28;20225;-54
2022/11/25 02:05:02;;;;;;;381.43;78.47;;;;;;;;;;4992959;28;20835;-53
2022/11/25 02:07:36;;;;;;;309.03;60.73;;;;;;;;;;4992634;28;20225;-53
2022/11/25 02:10:05;;;;;;;311.60;61.30;;;;;;;;;;4988395;28;20223;-53
2022/11/25 02:12:31;;;;;;;325.53;62.53;;;;;;;;;;4997648;28;20235;-53
2022/11/25 02:14:59;;;;;;;253.83;56.73;;;;;;;;;;5013483;28;20212;-53
2022/11/25 02:17:25;;;;;;;462.43;96.60;;;;;;;;;;5006457;28;20231;-54
2022/11/25 02:20:09;;;;;;;497.63;105.37;;;;;;;;;;5015076;28;20230;-53
2022/11/25 02:22:51;;;;;;;321.33;63.90;;;;;;;;;;5009562;28;20256;-53
2022/11/25 02:25:20;;;;;;;356.27;79.80;;;;;;;;;;5010971;28;20247;-53
2022/11/25 02:27:47;;;;;;;320.23;66.60;;;;;;;;;;5012635;28;20216;-53
2022/11/25 02:30:13;;;;;;;287.03;60.70;;;;;;;;;;5009864;28;20284;-54
2022/11/25 02:32:43;;;;;;;409.30;89.73;;;;;;;;;;5011671;28;20251;-54
2022/11/25 02:35:26;;;;;;;287.03;55.63;;;;;;;;;;5034068;28;20219;-54
2022/11/25 02:37:54;;;;;;;378.07;74.20;;;;;;;;;;4996583;28;21004;-54
2022/11/25 02:40:21;;;;;;;472.30;102.37;;;;;;;;;;4988758;28;20338;-54
2022/11/25 02:42:48;;;;;;;351.83;68.00;;;;;;;;;;4993929;28;20603;-54
2022/11/25 02:45:16;;;;;;;411.53;88.47;;;;;;;;;;4990003;28;20264;-54
2022/11/25 02:47:42;;;;;;;336.77;71.63;;;;;;;;;;4995225;28;20224;-54
2022/11/25 02:50:08;;;;;;;327.13;65.33;;;;;;;;;;4992042;28;20208;-54
2022/11/25 02:52:33;;;;;;;183.80;39.33;;;;;;;;;;4996950;28;20220;-53
2022/11/25 02:54:59;;;;;;;486.57;103.33;;;;;;;;;;4996600;28;20212;-54
2022/11/25 02:57:25;;;;;;;350.67;64.37;;;;;;;;;;4993034;28;20253;-54
2022/11/25 02:59:51;;;;;;;407.97;90.27;;;;;;;;;;4993408;28;20181;-53
2022/11/25 03:02:18;;;;;;;384.93;72.50;;;;;;;;;;4995148;28;20212;-53
2022/11/25 03:04:43;;;;;;;364.97;76.87;;;;;;;;;;5006237;28;20212;-53
2022/11/25 03:07:09;;;;;;;338.80;66.13;;;;;;;;;;5004762;28;20219;-54
2022/11/25 03:09:35;;;;;;;334.73;70.60;;;;;;;;;;4996482;28;20219;-54
2022/11/25 03:12:20;;;;;;;222.23;45.47;;;;;;;;;;5005335;28;20592;-53
2022/11/25 03:14:46;;;;;;;357.77;72.83;;;;;;;;;;5011655;28;20251;-54
2022/11/25 03:17:13;;;;;;;323.97;59.80;;;;;;;;;;5012861;28;20249;-53
2022/11/25 03:19:39;;;;;;;275.63;56.87;;;;;;;;;;5021386;28;20239;-54
2022/11/25 03:22:06;;;;;;;266.70;47.30;;;;;;;;;;5023747;28;20975;-54
2022/11/25 03:24:32;;;;;;;131.73;27.77;;;;;;;;;;5014356;28;20626;-53
2022/11/25 03:26:59;;;;;;;217.57;46.97;;;;;;;;;;4996531;28;20196;-54
2022/11/25 03:29:25;;;;;;;156.33;33.90;;;;;;;;;;5013034;28;20212;-53
2022/11/25 03:31:51;;;;;;;442.83;99.97;;;;;;;;;;4997660;28;20326;-53
2022/11/25 03:34:16;;;;;;;312.47;59.00;;;;;;;;;;4991836;28;20819;-54
2022/11/25 03:36:42;;;;;;;292.00;54.77;;;;;;;;;;4994409;28;20236;-54
2022/11/25 03:39:08;;;;;;;303.53;56.80;;;;;;;;;;4994071;28;20275;-53
2022/11/25 03:41:34;;;;;;;249.93;53.00;;;;;;;;;;4995381;28;20221;-54
2022/11/25 03:44:00;;;;;;;421.63;87.80;;;;;;;;;;4989387;28;20815;-54
2022/11/25 03:46:26;;;;;;;296.53;56.63;;;;;;;;;;4992257;28;20212;-54
2022/11/25 03:48:52;;;;;;;157.50;32.97;;;;;;;;;;4992189;28;20307;-53
2022/11/25 03:51:18;;;;;;;428.73;92.37;;;;;;;;;;4996552;28;20189;-53
2022/11/25 03:53:44;;;;;;;395.63;82.37;;;;;;;;;;4982855;28;20201;-53
2022/11/25 03:56:10;;;;;;;362.00;69.33;;;;;;;;;;4985690;28;20545;-53
2022/11/25 03:58:36;;;;;;;333.57;67.17;;;;;;;;;;4980611;28;20959;-53
2022/11/25 04:01:02;;;;;;;422.07;86.37;;;;;;;;;;4987022;28;20227;-53
2022/11/25 04:03:28;;;;;;;310.53;64.40;;;;;;;;;;4990457;28;20665;-54
2022/11/25 04:05:54;;;;;;;349.03;69.50;;;;;;;;;;4995555;28;20552;-53
2022/11/25 04:08:20;;;;;;;182.43;34.97;;;;;;;;;;4996766;28;20452;-54
2022/11/25 04:10:48;;;;;;;313.33;61.33;;;;;;;;;;4995028;28;20616;-54
2022/11/25 04:13:14;;;;;;;436.40;82.07;;;;;;;;;;4989239;28;20221;-53
2022/11/25 04:15:45;;;;;;;377.47;73.47;;;;;;;;;;4991455;28;20920;-53
2022/11/25 04:18:11;;;;;;;416.47;84.30;;;;;;;;;;4991448;28;20189;-54
2022/11/25 04:20:36;;;;;;;184.20;37.30;;;;;;;;;;4993443;28;20208;-53
2022/11/25 04:23:02;;;;;;;169.50;35.17;;;;;;;;;;4992295;28;20217;-53
2022/11/25 04:25:28;;;;;;;157.23;29.07;;;;;;;;;;4995446;28;20208;-54
2022/11/25 04:27:54;;;;;;;402.87;74.93;;;;;;;;;;4993415;28;20621;-54
2022/11/25 04:30:20;;;;;;;427.20;83.63;;;;;;;;;;4992233;28;20188;-53
2022/11/25 04:32:46;;;;;;;387.20;74.73;;;;;;;;;;5011472;28;20201;-53
2022/11/25 04:35:12;;;;;;;374.47;73.37;;;;;;;;;;5013535;28;20220;-53
2022/11/25 04:37:38;;;;;;;247.27;54.77;;;;;;;;;;4998466;28;21320;-53
2022/11/25 04:40:04;;;;;;;394.23;73.63;;;;;;;;;;4992336;28;20223;-54
2022/11/25 04:42:31;;;;;;;353.70;67.00;;;;;;;;;;5000748;28;20590;-55
2022/11/25 04:44:57;;;;;;;168.33;33.67;;;;;;;;;;4991812;28;20187;-54
2022/11/25 04:47:23;;;;;;;443.97;82.73;;;;;;;;;;4993766;28;20970;-54
2022/11/25 04:49:49;;;;;;;371.50;74.43;;;;;;;;;;4999158;28;20656;-54
2022/11/25 04:52:15;;;;;;;467.00;91.53;;;;;;;;;;4995944;28;20212;-54
2022/11/25 04:54:40;;;;;;;332.43;67.27;;;;;;;;;;4996695;28;20333;-54
2022/11/25 04:57:06;;;;;;;466.17;90.90;;;;;;;;;;4993568;28;20634;-54
2022/11/25 04:59:39;;;;;;;415.90;84.20;;;;;;;;;;4990757;28;20209;-53
2022/11/25 05:02:22;;;;;;;403.37;87.33;;;;;;;;;;4988024;28;20399;-53
2022/11/25 05:04:48;;;;;;;230.97;49.70;;;;;;;;;;4996784;28;20215;-54
2022/11/25 05:07:15;;;;;;;455.93;96.17;;;;;;;;;;4994420;28;20551;-54
2022/11/25 05:09:41;;;;;;;254.20;52.63;;;;;;;;;;4987128;28;20231;-54
2022/11/25 05:12:08;;;;;;;404.10;87.87;;;;;;;;;;4987314;28;20280;-53
2022/11/25 05:14:34;;;;;;;141.73;27.83;;;;;;;;;;4990522;28;20213;-54
2022/11/25 05:17:01;;;;;;;190.60;38.00;;;;;;;;;;4989025;28;20966;-52
2022/11/25 05:19:27;;;;;;;178.40;37.87;;;;;;;;;;4994592;28;20744;-53
2022/11/25 05:21:53;;;;;;;181.93;36.40;;;;;;;;;;4991578;28;20407;-54
2022/11/25 05:24:19;;;;;;;337.70;66.53;;;;;;;;;;4990495;28;20188;-53
2022/11/25 05:26:45;;;;;;;231.73;45.30;;;;;;;;;;4984692;28;20196;-53
2022/11/25 05:29:11;;;;;;;388.77;83.03;;;;;;;;;;4988096;28;20661;-54
2022/11/25 05:31:37;;;;;;;197.20;41.47;;;;;;;;;;4989520;28;20217;-54
2022/11/25 05:34:03;;;;;;;446.97;91.20;;;;;;;;;;4990171;28;20622;-54
2022/11/25 05:36:30;;;;;;;443.37;87.07;;;;;;;;;;4998164;28;20205;-54
2022/11/25 05:38:56;;;;;;;479.67;98.63;;;;;;;;;;4999986;28;20589;-54
2022/11/25 05:41:22;;;;;;;156.77;33.60;;;;;;;;;;5000962;28;20239;-53
2022/11/25 05:43:48;;;;;;;303.03;56.30;;;;;;;;;;5001337;28;20271;-54
2022/11/25 05:46:15;;;;;;;448.77;98.57;;;;;;;;;;4999526;28;20209;-53
2022/11/25 05:48:41;;;;;;;191.40;36.47;;;;;;;;;;5003591;28;20375;-54
2022/11/25 05:51:08;;;;;;;445.27;90.07;;;;;;;;;;5003956;28;20181;-53
2022/11/25 05:53:34;;;;;;;316.20;63.80;;;;;;;;;;5000234;28;20246;-53
2022/11/25 05:56:01;;;;;;;161.33;31.43;;;;;;;;;;4995683;28;20228;-53
2022/11/25 05:58:28;;;;;;;276.30;55.10;;;;;;;;;;4997658;28;20747;-53
2022/11/25 06:00:54;;;;;;;388.07;86.50;;;;;;;;;;5013889;28;20251;-53
2022/11/25 06:03:23;;;;;;;466.40;99.27;;;;;;;;;;4988868;28;21547;-54
2022/11/25 06:05:49;;;;;;;486.93;109.43;;;;;;;;;;4987883;28;20911;-54
2022/11/25 06:08:15;;;;;;;507.33;107.70;;;;;;;;;;5001542;28;20223;-54
2022/11/25 06:10:41;;;;;;;233.13;43.47;;;;;;;;;;5011800;28;20802;-54
2022/11/25 06:13:08;;;;;;;321.63;65.93;;;;;;;;;;5006770;28;20484;-54
2022/11/25 06:15:33;;;;;;;305.20;63.47;;;;;;;;;;4993935;28;20212;-55
2022/11/25 06:17:59;;;;;;;286.57;59.17;;;;;;;;;;4988669;28;20190;-54
2022/11/25 06:20:26;;;;;;;512.70;113.57;;;;;;;;;;5000752;28;20312;-54
2022/11/25 06:22:53;;;;;;;401.53;82.03;;;;;;;;;;4974648;28;22506;-54
2022/11/25 06:25:19;;;;;;;495.60;101.30;;;;;;;;;;5002453;28;20699;-54
2022/11/25 06:27:45;;;;;;;427.67;92.10;;;;;;;;;;4987466;28;20216;-54
2022/11/25 06:30:12;;;;;;;451.93;95.43;;;;;;;;;;4987548;28;20649;-54
2022/11/25 06:32:39;;;;;;;568.90;131.50;;;;;;;;;;4977215;28;20228;-54
2022/11/25 06:35:05;;;;;;;580.63;120.20;;;;;;;;;;4978453;28;20212;-54
2022/11/25 06:37:34;;;;;;;237.47;48.63;;;;;;;;;;4995141;28;20271;-54
2022/11/25 06:40:00;;;;;;;471.47;97.37;;;;;;;;;;4983687;28;20231;-54
2022/11/25 06:42:26;;;;;;;416.60;87.27;;;;;;;;;;5014412;28;20294;-54
2022/11/25 06:44:52;;;;;;;514.80;98.73;;;;;;;;;;5009296;28;20200;-54
2022/11/25 06:47:18;;;;;;;489.40;100.60;;;;;;;;;;5005479;28;20343;-54
2022/11/25 06:49:44;;;;;;;410.43;75.60;;;;;;;;;;5005657;28;20216;-55
2022/11/25 06:52:10;;;;;;;297.80;60.60;;;;;;;;;;5002012;28;20724;-54
2022/11/25 06:54:39;;;;;;;387.17;80.23;;;;;;;;;;5003422;28;20225;-54
2022/11/25 06:57:06;;;;;;;371.03;70.53;;;;;;;;;;5004925;28;20748;-54
2022/11/25 06:59:32;;;;;;;427.83;84.73;;;;;;;;;;5000519;28;20227;-54
2022/11/25 07:01:58;;;;;;;454.70;95.10;;;;;;;;;;5006385;28;20217;-54
2022/11/25 07:04:24;;;;;;;343.90;72.10;;;;;;;;;;4999756;28;20223;-54
2022/11/25 07:06:51;;;;;;;393.00;82.70;;;;;;;;;;5004255;28;20216;-54
2022/11/25 07:09:18;;;;;;;586.87;127.67;;;;;;;;;;4961031;28;20235;-54
2022/11/25 07:11:44;;;;;;;445.37;96.23;;;;;;;;;;4978993;28;20196;-54
2022/11/25 07:14:15;;;;;;;447.20;86.30;;;;;;;;;;4962607;28;20847;-54
2022/11/25 07:16:43;;;;;;;351.07;66.90;;;;;;;;;;4985323;28;20232;-54
2022/11/25 07:19:10;;;;;;;522.90;107.30;;;;;;;;;;4992549;28;22111;-54
2022/11/25 07:21:36;;;;;;;356.63;69.77;;;;;;;;;;4987029;28;20674;-54
2022/11/25 07:24:04;;;;;;;530.40;114.27;;;;;;;;;;4984208;28;20212;-54
2022/11/25 07:26:31;;;;;;;302.27;55.90;;;;;;;;;;4987216;28;20310;-54
2022/11/25 07:28:58;;;;;;;472.33;97.47;;;;;;;;;;5002806;28;20716;-54
2022/11/25 07:31:29;;;;;;;376.03;83.53;;;;;;;;;;5000208;28;20208;-51
2022/11/25 07:34:19;;;;;;;410.60;91.53;;;;;;;;;;4992753;28;20330;-51
2022/11/25 07:36:46;;;;;;;457.33;96.40;;;;;;;;;;4979052;28;20225;-51
2022/11/25 07:39:13;;;;;;;593.10;119.83;;;;;;;;;;4962595;28;20197;-54
2022/11/25 07:41:40;;;;;;;264.90;53.70;;;;;;;;;;4977558;28;20271;-54
2022/11/25 07:44:07;;;;;;;520.33;121.87;;;;;;;;;;4974329;28;20337;-53
2022/11/25 07:46:35;;;;;;;394.10;95.27;;;;;;;;;;4985631;28;20613;-54
2022/11/25 07:49:05;;;;;;;290.87;62.30;;;;;;;;;;4985754;28;20274;-54
2022/11/25 07:51:34;;;;;;;197.23;38.33;;;;;;;;;;4988483;28;21205;-54
2022/11/25 07:54:01;;;;;;;615.57;135.10;;;;;;;;;;4961803;28;20208;-54
2022/11/25 07:56:27;;;;;;;544.57;113.30;;;;;;;;;;4964996;28;20298;-54
2022/11/25 07:58:54;;;;;;;261.37;51.30;;;;;;;;;;4988015;28;21328;-54
2022/11/25 08:01:20;;;;;;;355.63;73.90;;;;;;;;;;4987727;28;20708;-54
2022/11/25 08:03:48;;;;;;;281.00;62.07;;;;;;;;;;4996365;28;20219;-54
2022/11/25 08:06:15;;;;;;;315.80;65.50;;;;;;;;;;4988386;28;20195;-54
2022/11/25 08:08:41;;;;;;;325.13;73.97;;;;;;;;;;4992950;28;20224;-54
2022/11/25 08:11:09;;;;;;;340.17;74.37;;;;;;;;;;4987612;28;20555;-54
2022/11/25 08:13:35;;;;;;;476.77;101.30;;;;;;;;;;4986610;28;20219;-54
2022/11/25 08:16:01;;;;;;;276.67;57.53;;;;;;;;;;4995423;28;20551;-54
2022/11/25 08:18:27;;;;;;;385.57;74.20;;;;;;;;;;4997317;28;20184;-54
2022/11/25 08:20:57;;;;;;;216.20;43.23;;;;;;;;;;5000301;28;20200;-54
2022/11/25 08:23:23;;;;;;;399.77;97.03;;;;;;;;;;4992847;28;20221;-53
2022/11/25 08:25:49;;;;;;;287.00;57.00;;;;;;;;;;4986916;28;20247;-54
2022/11/25 08:28:15;;;;;;;621.60;142.27;;;;;;;;;;4990020;28;20262;-54
2022/11/25 08:30:41;;;;;;;276.00;58.67;;;;;;;;;;4999529;28;20758;-54
2022/11/25 08:33:07;;;;;;;231.37;46.60;;;;;;;;;;4995224;28;20259;-54
2022/11/25 08:35:36;;;;;;;520.13;111.63;;;;;;;;;;4990562;28;20870;-54
2022/11/25 08:38:04;;;;;;;332.23;64.37;;;;;;;;;;4980093;28;20209;-54
2022/11/25 08:40:30;;;;;;;490.53;102.00;;;;;;;;;;4971410;28;20859;-54
2022/11/25 08:42:56;;;;;;;237.23;52.60;;;;;;;;;;4973122;28;23456;-54
2022/11/25 08:45:22;;;;;;;372.60;87.00;;;;;;;;;;4992184;28;20971;-54
2022/11/25 08:47:48;;;;;;;293.77;60.43;;;;;;;;;;4961079;28;20181;-54
2022/11/25 08:50:14;;;;;;;414.37;80.33;;;;;;;;;;4951133;28;20250;-54
2022/11/25 08:52:41;;;;;;;446.20;93.60;;;;;;;;;;4971302;28;20231;-54
2022/11/25 08:55:07;;;;;;;436.23;87.60;;;;;;;;;;4979066;28;20931;-54
2022/11/25 08:57:33;;;;;;;540.03;114.67;;;;;;;;;;4985050;28;20697;-54
2022/11/25 08:59:59;;;;;;;266.43;58.17;;;;;;;;;;4993584;28;20219;-54
2022/11/25 09:02:26;;;;;;;373.97;82.93;;;;;;;;;;4988422;28;20216;-53
2022/11/25 09:04:52;;;;;;;418.30;84.30;;;;;;;;;;4991942;28;20216;-54
2022/11/25 09:07:18;;;;;;;431.87;84.23;;;;;;;;;;4987015;28;20305;-54
2022/11/25 09:09:44;;;;;;;413.00;83.17;;;;;;;;;;4999499;28;20331;-54
2022/11/25 09:12:12;;;;;;;348.67;73.17;;;;;;;;;;4996370;28;20196;-54
2022/11/25 09:14:39;;;;;;;417.73;92.40;;;;;;;;;;4995127;28;20214;-54
2022/11/25 09:17:12;;;;;;;462.43;100.43;;;;;;;;;;4990209;28;20224;-54
2022/11/25 09:19:38;;;;;;;461.17;96.33;;;;;;;;;;5000992;28;20226;-54
2022/11/25 09:22:04;;;;;;;386.50;83.97;;;;;;;;;;4999156;28;20351;-54
2022/11/25 09:24:31;;;;;;;384.03;82.77;;;;;;;;;;5001382;28;20227;-54
2022/11/25 09:26:57;;;;;;;250.90;49.97;;;;;;;;;;5006484;28;20285;-54
2022/11/25 09:29:24;;;;;;;465.90;97.70;;;;;;;;;;4983425;28;20220;-54
2022/11/25 09:31:50;;;;;;;451.00;103.77;;;;;;;;;;5000878;28;20239;-54
2022/11/25 09:34:16;;;;;;;348.10;66.93;;;;;;;;;;5005474;28;20532;-54
2022/11/25 09:36:43;;;;;;;363.43;73.47;;;;;;;;;;5013855;28;20358;-54
2022/11/25 09:39:09;;;;;;;232.73;49.80;;;;;;;;;;5003676;28;20197;-54
2022/11/25 09:47:24;;;;;;;341.80;72.37;;;;;;;;;;4986114;28;20277;-54
2022/11/25 09:49:50;;;;;;;382.47;84.53;;;;;;;;;;5015203;28;20216;-54
2022/11/25 09:52:23;;;;;;;372.53;74.60;;;;;;;;;;5002132;28;20360;-54
2022/11/25 09:55:03;;;;;;;435.40;89.83;;;;;;;;;;5007733;28;20219;-54
2022/11/25 09:57:49;;;;;;;357.33;76.67;;;;;;;;;;5001571;28;20258;-54
2022/11/25 10:00:18;;;;;;;212.00;53.97;;;;;;;;;;5006712;28;20235;-54
2022/11/25 10:03:03;;;;;;;396.30;104.93;;;;;;;;;;4981046;28;21330;-54
2022/11/25 10:05:42;;;;;;;384.63;88.63;;;;;;;;;;5020311;28;20671;-54
2022/11/25 10:08:20;;;;;;;293.60;68.77;;;;;;;;;;5022737;28;20299;-54
2022/11/25 10:10:49;;;;;;;279.77;67.93;;;;;;;;;;5020031;28;20208;-54
2022/11/25 10:13:45;;;;;;;329.60;73.77;;;;;;;;;;5016897;28;20216;-54
2022/11/25 10:16:23;;;;;;;298.43;70.83;;;;;;;;;;5008231;28;20636;-54
2022/11/25 10:18:58;;;;;;;194.30;58.57;;;;;;;;;;5022162;28;20751;-54
2022/11/25 10:21:24;;;;;;;239.97;66.50;;;;;;;;;;5022321;28;20260;-54
2022/11/25 10:23:50;;;;;;;388.07;93.00;;;;;;;;;;5023047;28;20251;-54
2022/11/25 10:26:19;;;;;;;353.27;92.83;;;;;;;;;;5007435;28;20680;-54
2022/11/25 10:29:07;;;;;;;344.10;87.60;;;;;;;;;;5002935;28;20212;-54
2022/11/25 10:31:35;;;;;;;439.23;117.63;;;;;;;;;;4980462;28;20292;-53
2022/11/25 10:34:01;;;;;;;444.13;115.80;;;;;;;;;;5012195;28;20232;-54
2022/11/25 10:36:30;;;;;;;416.40;104.23;;;;;;;;;;5013214;28;20219;-54
2022/11/25 10:38:59;;;;;;;333.77;77.80;;;;;;;;;;5003373;28;20618;-54
2022/11/25 10:41:27;;;;;;;340.43;91.60;;;;;;;;;;5005174;28;20215;-54
2022/11/25 10:43:54;;;;;;;434.83;109.20;;;;;;;;;;5006689;28;20216;-54
2022/11/25 10:46:20;;;;;;;361.53;102.57;;;;;;;;;;5006337;28;20237;-54
2022/11/25 10:48:52;;;;;;;380.73;95.17;;;;;;;;;;5011138;28;20223;-54
2022/11/25 10:51:25;;;;;;;429.67;102.33;;;;;;;;;;5002461;28;21039;-54
2022/11/25 10:54:10;;;;;;;279.93;79.23;;;;;;;;;;5004633;28;20215;-54
2022/11/25 10:56:46;;;;;;;274.07;79.43;;;;;;;;;;4997063;28;20251;-54
2022/11/25 10:59:13;;;;;;;378.30;106.00;;;;;;;;;;4993977;28;20340;-54
2022/11/25 11:01:39;;;;;;;426.73;114.17;;;;;;;;;;5004316;28;20219;-54
2022/11/25 11:04:13;;;;;;;429.70;104.93;;;;;;;;;;5007805;28;20212;-54
2022/11/25 11:06:42;;;;;;;294.00;76.50;;;;;;;;;;5003914;28;20216;-54
2022/11/25 11:09:30;;;;;;;354.20;89.37;;;;;;;;;;5000774;28;20184;-54
2022/11/25 11:11:56;;;;;;;449.40;110.17;;;;;;;;;;5008938;28;20320;-54
2022/11/25 11:14:22;;;;;;;396.87;95.10;;;;;;;;;;5016092;28;20314;-54
2022/11/25 11:16:52;;;;;;;354.83;85.50;;;;;;;;;;5020037;28;20231;-54
2022/11/25 11:19:23;;;;;;;215.40;56.63;;;;;;;;;;5012747;28;21151;-54
2022/11/25 11:21:49;;;;;;;294.43;73.10;;;;;;;;;;5018930;28;20274;-54
2022/11/25 11:24:24;;;;;;;399.97;90.37;;;;;;;;;;5020110;28;20188;-54
2022/11/25 11:27:01;;;;;;;314.83;70.10;;;;;;;;;;5021170;28;20220;-54
2022/11/25 11:29:27;;;;;;;353.83;94.00;;;;;;;;;;5017764;28;20689;-54
2022/11/25 11:32:00;;;;;;;224.13;64.03;;;;;;;;;;5009460;28;20216;-54
2022/11/25 11:34:29;;;;;;;240.83;69.97;;;;;;;;;;4995831;28;20216;-54
2022/11/25 11:36:55;;;;;;;263.37;73.73;;;;;;;;;;4996410;28;20223;-54
2022/11/25 11:39:36;;;;;;;264.13;73.10;;;;;;;;;;4997177;28;20192;-54
2022/11/25 11:42:17;;;;;;;270.97;73.53;;;;;;;;;;5014769;28;20223;-54
2022/11/25 11:45:01;;;;;;;358.83;88.87;;;;;;;;;;5000075;28;20590;-54
2022/11/25 11:47:46;;;;;;;398.80;106.33;;;;;;;;;;4999490;28;20565;-54
2022/11/25 11:50:15;;;;;;;436.20;125.23;;;;;;;;;;4989855;28;20584;-55
2022/11/25 11:52:47;;;;;;;213.37;57.07;;;;;;;;;;4998691;28;20354;-54
2022/11/25 11:55:25;;;;;;;355.80;85.67;;;;;;;;;;4998176;28;20313;-55
2022/11/25 11:57:57;;;;;;;419.67;110.53;;;;;;;;;;4988726;28;20600;-55
2022/11/25 12:00:25;;;;;;;520.07;131.33;;;;;;;;;;4998766;28;20195;-54
2022/11/25 12:02:59;;;;;;;506.33;139.30;;;;;;;;;;4995494;28;20639;-54
2022/11/25 12:05:29;;;;;;;364.87;86.60;;;;;;;;;;4986723;28;20255;-54
2022/11/25 12:08:14;;;;;;;449.27;112.33;;;;;;;;;;4996537;28;21300;-54
2022/11/25 12:10:41;;;;;;;384.53;98.07;;;;;;;;;;5016044;28;20228;-54
2022/11/25 12:13:27;;;;;;;351.17;91.57;;;;;;;;;;4995025;28;20305;-54
2022/11/25 12:15:53;;;;;;;352.93;89.33;;;;;;;;;;4999864;28;20675;-54
2022/11/25 12:18:31;;;;;;;447.00;118.13;;;;;;;;;;4993567;28;20723;-54
2022/11/25 12:21:06;;;;;;;326.30;78.23;;;;;;;;;;4995431;28;20216;-54
2022/11/25 12:23:50;;;;;;;400.57;101.73;;;;;;;;;;5005873;28;20222;-54
2022/11/25 12:26:24;;;;;;;349.63;88.77;;;;;;;;;;5011085;28;20330;-53
2022/11/25 12:28:57;;;;;;;500.70;140.60;;;;;;;;;;5011327;28;20227;-53
2022/11/25 12:31:38;;;;;;;362.47;100.07;;;;;;;;;;5023784;28;20218;-54
2022/11/25 12:34:30;;;;;;;429.30;107.47;;;;;;;;;;5015611;28;20212;-54
2022/11/25 12:37:03;;;;;;;285.97;73.87;;;;;;;;;;5011764;28;20231;-54
2022/11/25 12:39:44;;;;;;;426.97;109.30;;;;;;;;;;5004685;28;20184;-54
2022/11/25 12:42:15;;;;;;;392.40;100.00;;;;;;;;;;5009799;28;20636;-54
2022/11/25 12:44:41;;;;;;;344.33;87.00;;;;;;;;;;5010813;28;20258;-54
2022/11/25 12:47:10;;;;;;;260.80;63.07;;;;;;;;;;5021091;28;20330;-54
2022/11/25 12:49:42;;;;;;;153.10;41.83;;;;;;;;;;5026794;28;20355;-54
2022/11/25 12:52:25;;;;;;;185.97;50.23;;;;;;;;;;5016107;28;20204;-53
2022/11/25 12:55:15;;;;;;;445.63;112.70;;;;;;;;;;5010692;28;20219;-54
2022/11/25 12:57:57;;;;;;;445.87;106.60;;;;;;;;;;5012223;28;20255;-54
2022/11/25 13:00:42;;;;;;;171.07;46.30;;;;;;;;;;5031887;28;20192;-54
2022/11/25 13:03:27;;;;;;;394.30;97.70;;;;;;;;;;5021966;28;20876;-54
2022/11/25 13:05:59;;;;;;;321.73;73.67;;;;;;;;;;5021614;28;20223;-54
2022/11/25 13:08:57;;;;;;;188.43;47.97;;;;;;;;;;5026786;28;20513;-55
2022/11/25 13:11:33;;;;;;;330.37;83.87;;;;;;;;;;4992746;28;20695;-54
2022/11/25 13:13:59;;;;;;;285.83;69.10;;;;;;;;;;5019802;28;20219;-54
2022/11/25 13:16:26;;;;;;;366.97;86.93;;;;;;;;;;5028829;28;20227;-53
2022/11/25 13:18:52;;;;;;;215.23;59.20;;;;;;;;;;5030157;28;20285;-53
2022/11/25 13:21:21;;;;;;;330.93;78.57;;;;;;;;;;5030687;28;20711;-53
2022/11/25 13:23:48;;;;;;;277.40;67.13;;;;;;;;;;5017269;28;20708;-53
2022/11/25 13:26:33;;;;;;;169.87;42.67;;;;;;;;;;5026139;28;20286;-53
2022/11/25 13:29:19;;;;;;;432.03;113.60;;;;;;;;;;5004550;28;20207;-53
2022/11/25 13:31:54;;;;;;;467.67;123.37;;;;;;;;;;4985894;28;20223;-53
2022/11/25 13:34:20;;;;;;;240.23;58.50;;;;;;;;;;5007656;28;20466;-54
2022/11/25 13:36:56;;;;;;;395.47;98.73;;;;;;;;;;5029149;28;20412;-53
2022/11/25 13:39:32;;;;;;;187.50;45.03;;;;;;;;;;5007095;28;20407;-53
2022/11/25 13:41:59;;;;;;;374.10;91.57;;;;;;;;;;5001332;28;20353;-52
2022/11/25 13:44:34;;;;;;;329.93;81.40;;;;;;;;;;5003279;28;20534;-52
2022/11/25 13:47:20;;;;;;;492.67;131.80;;;;;;;;;;5006314;28;20688;-53
2022/11/25 13:49:49;;;;;;;192.23;49.60;;;;;;;;;;4995989;28;20212;-52
2022/11/25 13:52:15;;;;;;;412.77;92.83;;;;;;;;;;5006647;28;20234;-55
2022/11/25 13:54:44;;;;;;;288.07;74.60;;;;;;;;;;5002095;28;20540;-54
2022/11/25 13:57:10;;;;;;;403.20;95.03;;;;;;;;;;5001448;28;23368;-54
2022/11/25 13:59:37;;;;;;;357.33;85.30;;;;;;;;;;5011749;28;20620;-54
2022/11/25 14:02:22;;;;;;;286.40;70.50;;;;;;;;;;5013459;28;20296;-54
2022/11/25 14:05:06;;;;;;;232.93;59.77;;;;;;;;;;4996156;28;20751;-54
2022/11/25 14:07:35;;;;;;;536.53;159.10;;;;;;;;;;4997817;28;21903;-54
2022/11/25 14:10:01;;;;;;;322.13;78.73;;;;;;;;;;5002617;28;20759;-54
2022/11/25 14:12:36;;;;;;;312.67;77.53;;;;;;;;;;5024762;28;20306;-54
2022/11/25 14:15:21;;;;;;;262.30;62.37;;;;;;;;;;5004867;28;20215;-54
2022/11/25 14:18:03;;;;;;;500.30;121.33;;;;;;;;;;5001462;28;20278;-54
2022/11/25 14:20:52;;;;;;;308.70;69.50;;;;;;;;;;4985116;28;20208;-54
2022/11/25 14:23:28;;;;;;;219.83;54.43;;;;;;;;;;4978847;28;20220;-55